Aviation Digital Data Service (ADDS)

Output produced by METARs form (1737 UTC 24 June 2019)
found at http://www.aviationweather.gov/metar/data/
 
METAR text: ESIB 241720Z AUTO 03007KT 9999 NCD 20/13 Q1026
Conditions at: ESIB (SATENAS (SWE-AFB, SE) observed 1720 UTC 24 June 2019
Temperature: 20.0°C (68°F)
Dewpoint: 13.0°C (55°F) [RH = 64%]
Pressure (altimeter): 30.30 inches Hg (1026.0 mb)
Winds: from the NNE (30 degrees) at 8 MPH (7 knots; 3.6 m/s)
Visibility: 6 or more miles (10+ km)
Ceiling: at least 12,000 feet AGL
Clouds: sky clear below 12,000 feet AGL
Weather: no significant weather observed at this time

METAR text: ESIB 241650Z AUTO 03008KT 9999 NCD 20/13 Q1027
Conditions at: ESIB (SATENAS (SWE-AFB, SE) observed 1650 UTC 24 June 2019
Temperature: 20.0°C (68°F)
Dewpoint: 13.0°C (55°F) [RH = 64%]
Pressure (altimeter): 30.32 inches Hg (1027.0 mb)
Winds: from the NNE (30 degrees) at 9 MPH (8 knots; 4.1 m/s)
Visibility: 6 or more miles (10+ km)
Ceiling: at least 12,000 feet AGL
Clouds: sky clear below 12,000 feet AGL
Weather: no significant weather observed at this time

METAR text: ESIB 241620Z AUTO 03008KT 9999 NCD 21/13 Q1027
Conditions at: ESIB (SATENAS (SWE-AFB, SE) observed 1620 UTC 24 June 2019
Temperature: 21.0°C (70°F)
Dewpoint: 13.0°C (55°F) [RH = 60%]
Pressure (altimeter): 30.32 inches Hg (1027.0 mb)
Winds: from the NNE (30 degrees) at 9 MPH (8 knots; 4.1 m/s)
Visibility: 6 or more miles (10+ km)
Ceiling: at least 12,000 feet AGL
Clouds: sky clear below 12,000 feet AGL
Weather: no significant weather observed at this time

METAR text: ESIB 241550Z AUTO 03008KT 9999 NCD 20/13 Q1027
Conditions at: ESIB (SATENAS (SWE-AFB, SE) observed 1550 UTC 24 June 2019
Temperature: 20.0°C (68°F)
Dewpoint: 13.0°C (55°F) [RH = 64%]
Pressure (altimeter): 30.32 inches Hg (1027.0 mb)
Winds: from the NNE (30 degrees) at 9 MPH (8 knots; 4.1 m/s)
Visibility: 6 or more miles (10+ km)
Ceiling: at least 12,000 feet AGL
Clouds: sky clear below 12,000 feet AGL
Weather: no significant weather observed at this time

METAR text: ESIB 241520Z AUTO 02011KT 9999 NCD 20/13 Q1027
Conditions at: ESIB (SATENAS (SWE-AFB, SE) observed 1520 UTC 24 June 2019
Temperature: 20.0°C (68°F)
Dewpoint: 13.0°C (55°F) [RH = 64%]
Pressure (altimeter): 30.32 inches Hg (1027.0 mb)
Winds: from the NNE (20 degrees) at 13 MPH (11 knots; 5.7 m/s)
Visibility: 6 or more miles (10+ km)
Ceiling: at least 12,000 feet AGL
Clouds: sky clear below 12,000 feet AGL
Weather: no significant weather observed at this time

METAR text: ESIB 241450Z 02010KT CAVOK 20/13 Q1027
Conditions at: ESIB (SATENAS (SWE-AFB, SE) observed 1450 UTC 24 June 2019
Temperature: 20.0°C (68°F)
Dewpoint: 13.0°C (55°F) [RH = 64%]
Pressure (altimeter): 30.32 inches Hg (1027.0 mb)
Winds: from the NNE (20 degrees) at 12 MPH (10 knots; 5.1 m/s)
Visibility: 6 or more miles (10+ km)
Ceiling: ceiling and visibility are OK
Clouds: unknown
Weather: no significant weather observed at this time

METAR text: ESIB 241420Z 02009KT CAVOK 20/13 Q1028
Conditions at: ESIB (SATENAS (SWE-AFB, SE) observed 1420 UTC 24 June 2019
Temperature: 20.0°C (68°F)
Dewpoint: 13.0°C (55°F) [RH = 64%]
Pressure (altimeter): 30.35 inches Hg (1028.0 mb)
Winds: from the NNE (20 degrees) at 10 MPH (9 knots; 4.6 m/s)
Visibility: 6 or more miles (10+ km)
Ceiling: ceiling and visibility are OK
Clouds: unknown
Weather: no significant weather observed at this time

METAR text: ESIB 241350Z 01008KT 9999 FEW040 SCT200 20/13 Q1028
Conditions at: ESIB (SATENAS (SWE-AFB, SE) observed 1350 UTC 24 June 2019
Temperature: 20.0°C (68°F)
Dewpoint: 13.0°C (55°F) [RH = 64%]
Pressure (altimeter): 30.35 inches Hg (1028.0 mb)
Winds: from the N (10 degrees) at 9 MPH (8 knots; 4.1 m/s)
Visibility: 6 or more miles (10+ km)
Ceiling: at least 12,000 feet AGL
Clouds: few clouds at 4000 feet AGL
scattered clouds at 20000 feet AGL
Weather: no significant weather observed at this time

METAR text: ESIB 241320Z 36008KT 9999 FEW040 SCT200 20/14 Q1028
Conditions at: ESIB (SATENAS (SWE-AFB, SE) observed 1320 UTC 24 June 2019
Temperature: 20.0°C (68°F)
Dewpoint: 14.0°C (57°F) [RH = 68%]
Pressure (altimeter): 30.35 inches Hg (1028.0 mb)
Winds: from the N (360 degrees) at 9 MPH (8 knots; 4.1 m/s)
Visibility: 6 or more miles (10+ km)
Ceiling: at least 12,000 feet AGL
Clouds: few clouds at 4000 feet AGL
scattered clouds at 20000 feet AGL
Weather: no significant weather observed at this time

METAR text: ESIB 241250Z 36010KT 9999 FEW030 SCT200 19/14 Q1028
Conditions at: ESIB (SATENAS (SWE-AFB, SE) observed 1250 UTC 24 June 2019
Temperature: 19.0°C (66°F)
Dewpoint: 14.0°C (57°F) [RH = 73%]
Pressure (altimeter): 30.35 inches Hg (1028.0 mb)
Winds: from the N (360 degrees) at 12 MPH (10 knots; 5.1 m/s)
Visibility: 6 or more miles (10+ km)
Ceiling: at least 12,000 feet AGL
Clouds: few clouds at 3000 feet AGL
scattered clouds at 20000 feet AGL
Weather: no significant weather observed at this time

METAR text: ESIB 241220Z 36009KT 9999 FEW030 SCT200 19/14 Q1028
Conditions at: ESIB (SATENAS (SWE-AFB, SE) observed 1220 UTC 24 June 2019
Temperature: 19.0°C (66°F)
Dewpoint: 14.0°C (57°F) [RH = 73%]
Pressure (altimeter): 30.35 inches Hg (1028.0 mb)
Winds: from the N (360 degrees) at 10 MPH (9 knots; 4.6 m/s)
Visibility: 6 or more miles (10+ km)
Ceiling: at least 12,000 feet AGL
Clouds: few clouds at 3000 feet AGL
scattered clouds at 20000 feet AGL
Weather: no significant weather observed at this time

METAR text: ESIB 241150Z 34008KT 9999 FEW030 BKN200 20/14 Q1028
Conditions at: ESIB (SATENAS (SWE-AFB, SE) observed 1150 UTC 24 June 2019
Temperature: 20.0°C (68°F)
Dewpoint: 14.0°C (57°F) [RH = 68%]
Pressure (altimeter): 30.35 inches Hg (1028.0 mb)
Winds: from the NNW (340 degrees) at 9 MPH (8 knots; 4.1 m/s)
Visibility: 6 or more miles (10+ km)
Ceiling: 20000 feet AGL
Clouds: few clouds at 3000 feet AGL
broken clouds at 20000 feet AGL
Weather: no significant weather observed at this time

METAR text: ESIB 241120Z 35007KT 9999 FEW030 BKN200 19/14 Q1028
Conditions at: ESIB (SATENAS (SWE-AFB, SE) observed 1120 UTC 24 June 2019
Temperature: 19.0°C (66°F)
Dewpoint: 14.0°C (57°F) [RH = 73%]
Pressure (altimeter): 30.35 inches Hg (1028.0 mb)
Winds: from the N (350 degrees) at 8 MPH (7 knots; 3.6 m/s)
Visibility: 6 or more miles (10+ km)
Ceiling: 20000 feet AGL
Clouds: few clouds at 3000 feet AGL
broken clouds at 20000 feet AGL
Weather: no significant weather observed at this time

METAR text: ESIB 241050Z 04005KT 340V090 9999 FEW030 BKN200 19/14 Q1029
Conditions at: ESIB (SATENAS (SWE-AFB, SE) observed 1050 UTC 24 June 2019
Temperature: 19.0°C (66°F)
Dewpoint: 14.0°C (57°F) [RH = 73%]
Pressure (altimeter): 30.38 inches Hg (1029.0 mb)
Winds: from the NE (40 degrees) at 6 MPH (5 knots; 2.6 m/s)
Visibility: 6 or more miles (10+ km)
Ceiling: 20000 feet AGL
Clouds: few clouds at 3000 feet AGL
broken clouds at 20000 feet AGL
Weather: no significant weather observed at this time

METAR text: ESIB 241020Z VRB03KT 9999 FEW030 BKN200 19/14 Q1029
Conditions at: ESIB (SATENAS (SWE-AFB, SE) observed 1020 UTC 24 June 2019
Temperature: 19.0°C (66°F)
Dewpoint: 14.0°C (57°F) [RH = 73%]
Pressure (altimeter): 30.38 inches Hg (1029.0 mb)
Winds: variable direction winds at 3 MPH (3 knots; 1.5 m/s)
Visibility: 6 or more miles (10+ km)
Ceiling: 20000 feet AGL
Clouds: few clouds at 3000 feet AGL
broken clouds at 20000 feet AGL
Weather: no significant weather observed at this time

METAR text: ESIB 240950Z VRB02KT 9999 FEW030 BKN200 19/14 Q1029
Conditions at: ESIB (SATENAS (SWE-AFB, SE) observed 0950 UTC 24 June 2019
Temperature: 19.0°C (66°F)
Dewpoint: 14.0°C (57°F) [RH = 73%]
Pressure (altimeter): 30.38 inches Hg (1029.0 mb)
Winds: variable direction winds at 2 MPH (2 knots; 1.0 m/s)
Visibility: 6 or more miles (10+ km)
Ceiling: 20000 feet AGL
Clouds: few clouds at 3000 feet AGL
broken clouds at 20000 feet AGL
Weather: no significant weather observed at this time

METAR text: ESIB 240920Z 31003KT 250V020 CAVOK 18/14 Q1029
Conditions at: ESIB (SATENAS (SWE-AFB, SE) observed 0920 UTC 24 June 2019
Temperature: 18.0°C (64°F)
Dewpoint: 14.0°C (57°F) [RH = 77%]
Pressure (altimeter): 30.38 inches Hg (1029.0 mb)
Winds: from the NW (310 degrees) at 3 MPH (3 knots; 1.5 m/s)
Visibility: 6 or more miles (10+ km)
Ceiling: ceiling and visibility are OK
Clouds: unknown
Weather: no significant weather observed at this time

METAR text: ESIB 240850Z 34003KT 290V020 CAVOK 18/13 Q1029
Conditions at: ESIB (SATENAS (SWE-AFB, SE) observed 0850 UTC 24 June 2019
Temperature: 18.0°C (64°F)
Dewpoint: 13.0°C (55°F) [RH = 73%]
Pressure (altimeter): 30.38 inches Hg (1029.0 mb)
Winds: from the NNW (340 degrees) at 3 MPH (3 knots; 1.5 m/s)
Visibility: 6 or more miles (10+ km)
Ceiling: ceiling and visibility are OK
Clouds: unknown
Weather: no significant weather observed at this time

METAR text: ESIB 240820Z 14003KT 100V190 CAVOK 17/12 Q1029
Conditions at: ESIB (SATENAS (SWE-AFB, SE) observed 0820 UTC 24 June 2019
Temperature: 17.0°C (63°F)
Dewpoint: 12.0°C (54°F) [RH = 72%]
Pressure (altimeter): 30.38 inches Hg (1029.0 mb)
Winds: from the SE (140 degrees) at 3 MPH (3 knots; 1.5 m/s)
Visibility: 6 or more miles (10+ km)
Ceiling: ceiling and visibility are OK
Clouds: unknown
Weather: no significant weather observed at this time

METAR text: ESIB 240750Z 11003KT 070V170 CAVOK 17/12 Q1028
Conditions at: ESIB (SATENAS (SWE-AFB, SE) observed 0750 UTC 24 June 2019
Temperature: 17.0°C (63°F)
Dewpoint: 12.0°C (54°F) [RH = 72%]
Pressure (altimeter): 30.35 inches Hg (1028.0 mb)
Winds: from the ESE (110 degrees) at 3 MPH (3 knots; 1.5 m/s)
Visibility: 6 or more miles (10+ km)
Ceiling: ceiling and visibility are OK
Clouds: unknown
Weather: no significant weather observed at this time

METAR text: ESIB 240720Z VRB01KT CAVOK 15/12 Q1029
Conditions at: ESIB (SATENAS (SWE-AFB, SE) observed 0720 UTC 24 June 2019
Temperature: 15.0°C (59°F)
Dewpoint: 12.0°C (54°F) [RH = 82%]
Pressure (altimeter): 30.38 inches Hg (1029.0 mb)
Winds: variable direction winds at 1 MPH (1 knots; 0.5 m/s)
Visibility: 6 or more miles (10+ km)
Ceiling: ceiling and visibility are OK
Clouds: unknown
Weather: no significant weather observed at this time

METAR text: ESIB 240650Z VRB02KT CAVOK 16/12 Q1028
Conditions at: ESIB (SATENAS (SWE-AFB, SE) observed 0650 UTC 24 June 2019
Temperature: 16.0°C (61°F)
Dewpoint: 12.0°C (54°F) [RH = 77%]
Pressure (altimeter): 30.35 inches Hg (1028.0 mb)
Winds: variable direction winds at 2 MPH (2 knots; 1.0 m/s)
Visibility: 6 or more miles (10+ km)
Ceiling: ceiling and visibility are OK
Clouds: unknown
Weather: no significant weather observed at this time

METAR text: ESIB 240620Z 20003KT 150V230 CAVOK 15/12 Q1028
Conditions at: ESIB (SATENAS (SWE-AFB, SE) observed 0620 UTC 24 June 2019
Temperature: 15.0°C (59°F)
Dewpoint: 12.0°C (54°F) [RH = 82%]
Pressure (altimeter): 30.35 inches Hg (1028.0 mb)
Winds: from the SSW (200 degrees) at 3 MPH (3 knots; 1.5 m/s)
Visibility: 6 or more miles (10+ km)
Ceiling: ceiling and visibility are OK
Clouds: unknown
Weather: no significant weather observed at this time

METAR text: ESIB 240550Z 22004KT CAVOK 14/13 Q1028
Conditions at: ESIB (SATENAS (SWE-AFB, SE) observed 0550 UTC 24 June 2019
Temperature: 14.0°C (57°F)
Dewpoint: 13.0°C (55°F) [RH = 94%]
Pressure (altimeter): 30.35 inches Hg (1028.0 mb)
Winds: from the SW (220 degrees) at 5 MPH (4 knots; 2.1 m/s)
Visibility: 6 or more miles (10+ km)
Ceiling: ceiling and visibility are OK
Clouds: unknown
Weather: no significant weather observed at this time

METAR text: ESIB 240520Z 00000KT CAVOK 12/12 Q1028
Conditions at: ESIB (SATENAS (SWE-AFB, SE) observed 0520 UTC 24 June 2019
Temperature: 12.0°C (54°F)
Dewpoint: 12.0°C (54°F) [RH = 100%]
Pressure (altimeter): 30.35 inches Hg (1028.0 mb)
Winds: calm
Visibility: 6 or more miles (10+ km)
Ceiling: ceiling and visibility are OK
Clouds: unknown
Weather: no significant weather observed at this time

METAR text: ESIB 240450Z 18002KT CAVOK 10/10 Q1028
Conditions at: ESIB (SATENAS (SWE-AFB, SE) observed 0450 UTC 24 June 2019
Temperature: 10.0°C (50°F)
Dewpoint: 10.0°C (50°F) [RH = 100%]
Pressure (altimeter): 30.35 inches Hg (1028.0 mb)
Winds: from the S (180 degrees) at 2 MPH (2 knots; 1.0 m/s)
Visibility: 6 or more miles (10+ km)
Ceiling: ceiling and visibility are OK
Clouds: unknown
Weather: no significant weather observed at this time

METAR text: ESIB 240420Z VRB01KT CAVOK 10/09 Q1028
Conditions at: ESIB (SATENAS (SWE-AFB, SE) observed 0420 UTC 24 June 2019
Temperature: 10.0°C (50°F)
Dewpoint: 9.0°C (48°F) [RH = 93%]
Pressure (altimeter): 30.35 inches Hg (1028.0 mb)
Winds: variable direction winds at 1 MPH (1 knots; 0.5 m/s)
Visibility: 6 or more miles (10+ km)
Ceiling: ceiling and visibility are OK
Clouds: unknown
Weather: no significant weather observed at this time

METAR text: ESIB 240350Z AUTO 00000KT 9999 NCD 09/09 Q1028
Conditions at: ESIB (SATENAS (SWE-AFB, SE) observed 0350 UTC 24 June 2019
Temperature: 9.0°C (48°F)
Dewpoint: 9.0°C (48°F) [RH = 100%]
Pressure (altimeter): 30.35 inches Hg (1028.0 mb)
Winds: calm
Visibility: 6 or more miles (10+ km)
Ceiling: at least 12,000 feet AGL
Clouds: sky clear below 12,000 feet AGL
Weather: no significant weather observed at this time

METAR text: ESIB 240320Z AUTO 13003KT 100V160 9999 SCT190/// 08/08 Q1028
Conditions at: ESIB (SATENAS (SWE-AFB, SE) observed 0320 UTC 24 June 2019
Temperature: 8.0°C (46°F)
Dewpoint: 8.0°C (46°F) [RH = 100%]
Pressure (altimeter): 30.35 inches Hg (1028.0 mb)
Winds: from the SE (130 degrees) at 3 MPH (3 knots; 1.5 m/s)
Visibility: 6 or more miles (10+ km)
Ceiling: at least 12,000 feet AGL
Clouds: scattered clouds at 19000 feet AGL
Weather: no significant weather observed at this time

METAR text: ESIB 240250Z AUTO 16002KT 9999 FEW200/// SCT230/// 09/08 Q1028
Conditions at: ESIB (SATENAS (SWE-AFB, SE) observed 0250 UTC 24 June 2019
Temperature: 9.0°C (48°F)
Dewpoint: 8.0°C (46°F) [RH = 93%]
Pressure (altimeter): 30.35 inches Hg (1028.0 mb)
Winds: from the SSE (160 degrees) at 2 MPH (2 knots; 1.0 m/s)
Visibility: 6 or more miles (10+ km)
Ceiling: at least 12,000 feet AGL
Clouds: few clouds at 20000 feet AGL
scattered clouds at 23000 feet AGL
Weather: no significant weather observed at this time

METAR text: ESIB 240220Z AUTO 00000KT 9999 BKN200/// 08/07 Q1028
Conditions at: ESIB (SATENAS (SWE-AFB, SE) observed 0220 UTC 24 June 2019
Temperature: 8.0°C (46°F)
Dewpoint: 7.0°C (45°F) [RH = 93%]
Pressure (altimeter): 30.35 inches Hg (1028.0 mb)
Winds: calm
Visibility: 6 or more miles (10+ km)
Ceiling: 20000 feet AGL
Clouds: broken clouds at 20000 feet AGL
Weather: no significant weather observed at this time

METAR text: ESIB 240150Z AUTO 13003KT 9999 BKN200/// 07/07 Q1027
Conditions at: ESIB (SATENAS (SWE-AFB, SE) observed 0150 UTC 24 June 2019
Temperature: 7.0°C (45°F)
Dewpoint: 7.0°C (45°F) [RH = 100%]
Pressure (altimeter): 30.32 inches Hg (1027.0 mb)
Winds: from the SE (130 degrees) at 3 MPH (3 knots; 1.5 m/s)
Visibility: 6 or more miles (10+ km)
Ceiling: 20000 feet AGL
Clouds: broken clouds at 20000 feet AGL
Weather: no significant weather observed at this time

METAR text: ESIB 240120Z AUTO 14003KT 9999 NCD 07/07 Q1027
Conditions at: ESIB (SATENAS (SWE-AFB, SE) observed 0120 UTC 24 June 2019
Temperature: 7.0°C (45°F)
Dewpoint: 7.0°C (45°F) [RH = 100%]
Pressure (altimeter): 30.32 inches Hg (1027.0 mb)
Winds: from the SE (140 degrees) at 3 MPH (3 knots; 1.5 m/s)
Visibility: 6 or more miles (10+ km)
Ceiling: at least 12,000 feet AGL
Clouds: sky clear below 12,000 feet AGL
Weather: no significant weather observed at this time

METAR text: ESIB 240050Z AUTO 18002KT 9999 NCD 07/07 Q1027
Conditions at: ESIB (SATENAS (SWE-AFB, SE) observed 0050 UTC 24 June 2019
Temperature: 7.0°C (45°F)
Dewpoint: 7.0°C (45°F) [RH = 100%]
Pressure (altimeter): 30.32 inches Hg (1027.0 mb)
Winds: from the S (180 degrees) at 2 MPH (2 knots; 1.0 m/s)
Visibility: 6 or more miles (10+ km)
Ceiling: at least 12,000 feet AGL
Clouds: sky clear below 12,000 feet AGL
Weather: no significant weather observed at this time

METAR text: ESIB 240020Z AUTO VRB02KT 9999 NCD 07/06 Q1027
Conditions at: ESIB (SATENAS (SWE-AFB, SE) observed 0020 UTC 24 June 2019
Temperature: 7.0°C (45°F)
Dewpoint: 6.0°C (43°F) [RH = 93%]
Pressure (altimeter): 30.32 inches Hg (1027.0 mb)
Winds: variable direction winds at 2 MPH (2 knots; 1.0 m/s)
Visibility: 6 or more miles (10+ km)
Ceiling: at least 12,000 feet AGL
Clouds: sky clear below 12,000 feet AGL
Weather: no significant weather observed at this time

METAR text: ESIB 232350Z AUTO VRB02KT 9999 NCD 09/08 Q1027
Conditions at: ESIB (SATENAS (SWE-AFB, SE) observed 2350 UTC 23 June 2019
Temperature: 9.0°C (48°F)
Dewpoint: 8.0°C (46°F) [RH = 93%]
Pressure (altimeter): 30.32 inches Hg (1027.0 mb)
Winds: variable direction winds at 2 MPH (2 knots; 1.0 m/s)
Visibility: 6 or more miles (10+ km)
Ceiling: at least 12,000 feet AGL
Clouds: sky clear below 12,000 feet AGL
Weather: no significant weather observed at this time

METAR text: ESIB 232320Z AUTO VRB02KT 9999 FEW200/// 11/09 Q1027
Conditions at: ESIB (SATENAS (SWE-AFB, SE) observed 2320 UTC 23 June 2019
Temperature: 11.0°C (52°F)
Dewpoint: 9.0°C (48°F) [RH = 87%]
Pressure (altimeter): 30.32 inches Hg (1027.0 mb)
Winds: variable direction winds at 2 MPH (2 knots; 1.0 m/s)
Visibility: 6 or more miles (10+ km)
Ceiling: at least 12,000 feet AGL
Clouds: few clouds at 20000 feet AGL
Weather: no significant weather observed at this time

METAR text: ESIB 232250Z AUTO 25003KT 220V280 9999 NCD 12/09 Q1027
Conditions at: ESIB (SATENAS (SWE-AFB, SE) observed 2250 UTC 23 June 2019
Temperature: 12.0°C (54°F)
Dewpoint: 9.0°C (48°F) [RH = 82%]
Pressure (altimeter): 30.32 inches Hg (1027.0 mb)
Winds: from the WSW (250 degrees) at 3 MPH (3 knots; 1.5 m/s)
Visibility: 6 or more miles (10+ km)
Ceiling: at least 12,000 feet AGL
Clouds: sky clear below 12,000 feet AGL
Weather: no significant weather observed at this time

METAR text: ESIB 232220Z AUTO 28005KT 9999 NCD 12/10 Q1026
Conditions at: ESIB (SATENAS (SWE-AFB, SE) observed 2220 UTC 23 June 2019
Temperature: 12.0°C (54°F)
Dewpoint: 10.0°C (50°F) [RH = 88%]
Pressure (altimeter): 30.30 inches Hg (1026.0 mb)
Winds: from the W (280 degrees) at 6 MPH (5 knots; 2.6 m/s)
Visibility: 6 or more miles (10+ km)
Ceiling: at least 12,000 feet AGL
Clouds: sky clear below 12,000 feet AGL
Weather: no significant weather observed at this time

METAR text: ESIB 232150Z AUTO 27006KT 9999 NCD 13/10 Q1026
Conditions at: ESIB (SATENAS (SWE-AFB, SE) observed 2150 UTC 23 June 2019
Temperature: 13.0°C (55°F)
Dewpoint: 10.0°C (50°F) [RH = 82%]
Pressure (altimeter): 30.30 inches Hg (1026.0 mb)
Winds: from the W (270 degrees) at 7 MPH (6 knots; 3.1 m/s)
Visibility: 6 or more miles (10+ km)
Ceiling: at least 12,000 feet AGL
Clouds: sky clear below 12,000 feet AGL
Weather: no significant weather observed at this time

METAR text: ESIB 232120Z AUTO 26004KT 9999 BKN210/// 14/10 Q1026
Conditions at: ESIB (SATENAS (SWE-AFB, SE) observed 2120 UTC 23 June 2019
Temperature: 14.0°C (57°F)
Dewpoint: 10.0°C (50°F) [RH = 77%]
Pressure (altimeter): 30.30 inches Hg (1026.0 mb)
Winds: from the W (260 degrees) at 5 MPH (4 knots; 2.1 m/s)
Visibility: 6 or more miles (10+ km)
Ceiling: 21000 feet AGL
Clouds: broken clouds at 21000 feet AGL
Weather: no significant weather observed at this time

METAR text: ESIB 232050Z AUTO 26005KT 9999 NCD 14/10 Q1026
Conditions at: ESIB (SATENAS (SWE-AFB, SE) observed 2050 UTC 23 June 2019
Temperature: 14.0°C (57°F)
Dewpoint: 10.0°C (50°F) [RH = 77%]
Pressure (altimeter): 30.30 inches Hg (1026.0 mb)
Winds: from the W (260 degrees) at 6 MPH (5 knots; 2.6 m/s)
Visibility: 6 or more miles (10+ km)
Ceiling: at least 12,000 feet AGL
Clouds: sky clear below 12,000 feet AGL
Weather: no significant weather observed at this time

METAR text: ESIB 232020Z AUTO 26006KT 9999 NCD 14/10 Q1025
Conditions at: ESIB (SATENAS (SWE-AFB, SE) observed 2020 UTC 23 June 2019
Temperature: 14.0°C (57°F)
Dewpoint: 10.0°C (50°F) [RH = 77%]
Pressure (altimeter): 30.27 inches Hg (1025.0 mb)
Winds: from the W (260 degrees) at 7 MPH (6 knots; 3.1 m/s)
Visibility: 6 or more miles (10+ km)
Ceiling: at least 12,000 feet AGL
Clouds: sky clear below 12,000 feet AGL
Weather: no significant weather observed at this time

METAR text: ESIB 231950Z AUTO 26006KT 9999 NCD 15/10 Q1025
Conditions at: ESIB (SATENAS (SWE-AFB, SE) observed 1950 UTC 23 June 2019
Temperature: 15.0°C (59°F)
Dewpoint: 10.0°C (50°F) [RH = 72%]
Pressure (altimeter): 30.27 inches Hg (1025.0 mb)
Winds: from the W (260 degrees) at 7 MPH (6 knots; 3.1 m/s)
Visibility: 6 or more miles (10+ km)
Ceiling: at least 12,000 feet AGL
Clouds: sky clear below 12,000 feet AGL
Weather: no significant weather observed at this time

METAR text: ESIB 231920Z AUTO 27006KT 9999 NCD 16/10 Q1025
Conditions at: ESIB (SATENAS (SWE-AFB, SE) observed 1920 UTC 23 June 2019
Temperature: 16.0°C (61°F)
Dewpoint: 10.0°C (50°F) [RH = 68%]
Pressure (altimeter): 30.27 inches Hg (1025.0 mb)
Winds: from the W (270 degrees) at 7 MPH (6 knots; 3.1 m/s)
Visibility: 6 or more miles (10+ km)
Ceiling: at least 12,000 feet AGL
Clouds: sky clear below 12,000 feet AGL
Weather: no significant weather observed at this time

METAR text: ESIB 231850Z AUTO 27007KT 9999 NCD 16/10 Q1025
Conditions at: ESIB (SATENAS (SWE-AFB, SE) observed 1850 UTC 23 June 2019
Temperature: 16.0°C (61°F)
Dewpoint: 10.0°C (50°F) [RH = 68%]
Pressure (altimeter): 30.27 inches Hg (1025.0 mb)
Winds: from the W (270 degrees) at 8 MPH (7 knots; 3.6 m/s)
Visibility: 6 or more miles (10+ km)
Ceiling: at least 12,000 feet AGL
Clouds: sky clear below 12,000 feet AGL
Weather: no significant weather observed at this time

METAR text: ESIB 231820Z AUTO 27007KT 9999 NCD 17/10 Q1024
Conditions at: ESIB (SATENAS (SWE-AFB, SE) observed 1820 UTC 23 June 2019
Temperature: 17.0°C (63°F)
Dewpoint: 10.0°C (50°F) [RH = 63%]
Pressure (altimeter): 30.24 inches Hg (1024.0 mb)
Winds: from the W (270 degrees) at 8 MPH (7 knots; 3.6 m/s)
Visibility: 6 or more miles (10+ km)
Ceiling: at least 12,000 feet AGL
Clouds: sky clear below 12,000 feet AGL
Weather: no significant weather observed at this time

METAR text: ESIB 231750Z AUTO 27008KT 9999 FEW210/// 18/09 Q1024
Conditions at: ESIB (SATENAS (SWE-AFB, SE) observed 1750 UTC 23 June 2019
Temperature: 18.0°C (64°F)
Dewpoint: 9.0°C (48°F) [RH = 56%]
Pressure (altimeter): 30.24 inches Hg (1024.0 mb)
Winds: from the W (270 degrees) at 9 MPH (8 knots; 4.1 m/s)
Visibility: 6 or more miles (10+ km)
Ceiling: at least 12,000 feet AGL
Clouds: few clouds at 21000 feet AGL
Weather: no significant weather observed at this time

METAR text: ESIB 231720Z AUTO 27008KT 9999 FEW200/// 18/09 Q1024
Conditions at: ESIB (SATENAS (SWE-AFB, SE) observed 1720 UTC 23 June 2019
Temperature: 18.0°C (64°F)
Dewpoint: 9.0°C (48°F) [RH = 56%]
Pressure (altimeter): 30.24 inches Hg (1024.0 mb)
Winds: from the W (270 degrees) at 9 MPH (8 knots; 4.1 m/s)
Visibility: 6 or more miles (10+ km)
Ceiling: at least 12,000 feet AGL
Clouds: few clouds at 20000 feet AGL
Weather: no significant weather observed at this time

METAR text: ESIB 231650Z AUTO 27009KT 9999 FEW200/// 18/09 Q1025
Conditions at: ESIB (SATENAS (SWE-AFB, SE) observed 1650 UTC 23 June 2019
Temperature: 18.0°C (64°F)
Dewpoint: 9.0°C (48°F) [RH = 56%]
Pressure (altimeter): 30.27 inches Hg (1025.0 mb)
Winds: from the W (270 degrees) at 10 MPH (9 knots; 4.6 m/s)
Visibility: 6 or more miles (10+ km)
Ceiling: at least 12,000 feet AGL
Clouds: few clouds at 20000 feet AGL
Weather: no significant weather observed at this time

METAR text: ESIB 231620Z AUTO 27010KT 9999 NCD 18/09 Q1025
Conditions at: ESIB (SATENAS (SWE-AFB, SE) observed 1620 UTC 23 June 2019
Temperature: 18.0°C (64°F)
Dewpoint: 9.0°C (48°F) [RH = 56%]
Pressure (altimeter): 30.27 inches Hg (1025.0 mb)
Winds: from the W (270 degrees) at 12 MPH (10 knots; 5.1 m/s)
Visibility: 6 or more miles (10+ km)
Ceiling: at least 12,000 feet AGL
Clouds: sky clear below 12,000 feet AGL
Weather: no significant weather observed at this time

METAR text: ESIB 231550Z AUTO 27011KT 9999 FEW200/// 19/08 Q1025
Conditions at: ESIB (SATENAS (SWE-AFB, SE) observed 1550 UTC 23 June 2019
Temperature: 19.0°C (66°F)
Dewpoint: 8.0°C (46°F) [RH = 49%]
Pressure (altimeter): 30.27 inches Hg (1025.0 mb)
Winds: from the W (270 degrees) at 13 MPH (11 knots; 5.7 m/s)
Visibility: 6 or more miles (10+ km)
Ceiling: at least 12,000 feet AGL
Clouds: few clouds at 20000 feet AGL
Weather: no significant weather observed at this time

METAR text: ESIB 231520Z AUTO 27010KT 9999 FEW180/// 19/09 Q1024
Conditions at: ESIB (SATENAS (SWE-AFB, SE) observed 1520 UTC 23 June 2019
Temperature: 19.0°C (66°F)
Dewpoint: 9.0°C (48°F) [RH = 52%]
Pressure (altimeter): 30.24 inches Hg (1024.0 mb)
Winds: from the W (270 degrees) at 12 MPH (10 knots; 5.1 m/s)
Visibility: 6 or more miles (10+ km)
Ceiling: at least 12,000 feet AGL
Clouds: few clouds at 18000 feet AGL
Weather: no significant weather observed at this time

METAR text: ESIB 231450Z AUTO 26011KT 9999 NCD 19/09 Q1024
Conditions at: ESIB (SATENAS (SWE-AFB, SE) observed 1450 UTC 23 June 2019
Temperature: 19.0°C (66°F)
Dewpoint: 9.0°C (48°F) [RH = 52%]
Pressure (altimeter): 30.24 inches Hg (1024.0 mb)
Winds: from the W (260 degrees) at 13 MPH (11 knots; 5.7 m/s)
Visibility: 6 or more miles (10+ km)
Ceiling: at least 12,000 feet AGL
Clouds: sky clear below 12,000 feet AGL
Weather: no significant weather observed at this time

METAR text: ESIB 231420Z AUTO 26011KT 9999 NCD 19/09 Q1024
Conditions at: ESIB (SATENAS (SWE-AFB, SE) observed 1420 UTC 23 June 2019
Temperature: 19.0°C (66°F)
Dewpoint: 9.0°C (48°F) [RH = 52%]
Pressure (altimeter): 30.24 inches Hg (1024.0 mb)
Winds: from the W (260 degrees) at 13 MPH (11 knots; 5.7 m/s)
Visibility: 6 or more miles (10+ km)
Ceiling: at least 12,000 feet AGL
Clouds: sky clear below 12,000 feet AGL
Weather: no significant weather observed at this time

METAR text: ESIB 231350Z AUTO 26011KT 9999 FEW220/// 20/09 Q1024
Conditions at: ESIB (SATENAS (SWE-AFB, SE) observed 1350 UTC 23 June 2019
Temperature: 20.0°C (68°F)
Dewpoint: 9.0°C (48°F) [RH = 49%]
Pressure (altimeter): 30.24 inches Hg (1024.0 mb)
Winds: from the W (260 degrees) at 13 MPH (11 knots; 5.7 m/s)
Visibility: 6 or more miles (10+ km)
Ceiling: at least 12,000 feet AGL
Clouds: few clouds at 22000 feet AGL
Weather: no significant weather observed at this time

METAR text: ESIB 231320Z AUTO 26011KT 9999 FEW190/// 19/09 Q1024
Conditions at: ESIB (SATENAS (SWE-AFB, SE) observed 1320 UTC 23 June 2019
Temperature: 19.0°C (66°F)
Dewpoint: 9.0°C (48°F) [RH = 52%]
Pressure (altimeter): 30.24 inches Hg (1024.0 mb)
Winds: from the W (260 degrees) at 13 MPH (11 knots; 5.7 m/s)
Visibility: 6 or more miles (10+ km)
Ceiling: at least 12,000 feet AGL
Clouds: few clouds at 19000 feet AGL
Weather: no significant weather observed at this time

METAR text: ESIB 231250Z AUTO 26012KT 9999 FEW190/// 20/09 Q1024
Conditions at: ESIB (SATENAS (SWE-AFB, SE) observed 1250 UTC 23 June 2019
Temperature: 20.0°C (68°F)
Dewpoint: 9.0°C (48°F) [RH = 49%]
Pressure (altimeter): 30.24 inches Hg (1024.0 mb)
Winds: from the W (260 degrees) at 14 MPH (12 knots; 6.2 m/s)
Visibility: 6 or more miles (10+ km)
Ceiling: at least 12,000 feet AGL
Clouds: few clouds at 19000 feet AGL
Weather: no significant weather observed at this time

METAR text: ESIB 231220Z AUTO 27011KT 9999 FEW170/// 20/09 Q1024
Conditions at: ESIB (SATENAS (SWE-AFB, SE) observed 1220 UTC 23 June 2019
Temperature: 20.0°C (68°F)
Dewpoint: 9.0°C (48°F) [RH = 49%]
Pressure (altimeter): 30.24 inches Hg (1024.0 mb)
Winds: from the W (270 degrees) at 13 MPH (11 knots; 5.7 m/s)
Visibility: 6 or more miles (10+ km)
Ceiling: at least 12,000 feet AGL
Clouds: few clouds at 17000 feet AGL
Weather: no significant weather observed at this time

METAR text: ESIB 231150Z AUTO 26010KT 9999 FEW200/// 19/08 Q1024
Conditions at: ESIB (SATENAS (SWE-AFB, SE) observed 1150 UTC 23 June 2019
Temperature: 19.0°C (66°F)
Dewpoint: 8.0°C (46°F) [RH = 49%]
Pressure (altimeter): 30.24 inches Hg (1024.0 mb)
Winds: from the W (260 degrees) at 12 MPH (10 knots; 5.1 m/s)
Visibility: 6 or more miles (10+ km)
Ceiling: at least 12,000 feet AGL
Clouds: few clouds at 20000 feet AGL
Weather: no significant weather observed at this time

METAR text: ESIB 231120Z AUTO 27011KT 9999 SCT150/// 19/08 Q1024
Conditions at: ESIB (SATENAS (SWE-AFB, SE) observed 1120 UTC 23 June 2019
Temperature: 19.0°C (66°F)
Dewpoint: 8.0°C (46°F) [RH = 49%]
Pressure (altimeter): 30.24 inches Hg (1024.0 mb)
Winds: from the W (270 degrees) at 13 MPH (11 knots; 5.7 m/s)
Visibility: 6 or more miles (10+ km)
Ceiling: at least 12,000 feet AGL
Clouds: scattered clouds at 15000 feet AGL
Weather: no significant weather observed at this time

METAR text: ESIB 231050Z AUTO 26012KT 9999 SCT160/// 19/08 Q1024
Conditions at: ESIB (SATENAS (SWE-AFB, SE) observed 1050 UTC 23 June 2019
Temperature: 19.0°C (66°F)
Dewpoint: 8.0°C (46°F) [RH = 49%]
Pressure (altimeter): 30.24 inches Hg (1024.0 mb)
Winds: from the W (260 degrees) at 14 MPH (12 knots; 6.2 m/s)
Visibility: 6 or more miles (10+ km)
Ceiling: at least 12,000 feet AGL
Clouds: scattered clouds at 16000 feet AGL
Weather: no significant weather observed at this time

METAR text: ESIB 231020Z AUTO 26011KT 9999 NCD 19/09 Q1024
Conditions at: ESIB (SATENAS (SWE-AFB, SE) observed 1020 UTC 23 June 2019
Temperature: 19.0°C (66°F)
Dewpoint: 9.0°C (48°F) [RH = 52%]
Pressure (altimeter): 30.24 inches Hg (1024.0 mb)
Winds: from the W (260 degrees) at 13 MPH (11 knots; 5.7 m/s)
Visibility: 6 or more miles (10+ km)
Ceiling: at least 12,000 feet AGL
Clouds: sky clear below 12,000 feet AGL
Weather: no significant weather observed at this time

METAR text: ESIB 230950Z AUTO 26009KT 9999 NCD 19/09 Q1024
Conditions at: ESIB (SATENAS (SWE-AFB, SE) observed 0950 UTC 23 June 2019
Temperature: 19.0°C (66°F)
Dewpoint: 9.0°C (48°F) [RH = 52%]
Pressure (altimeter): 30.24 inches Hg (1024.0 mb)
Winds: from the W (260 degrees) at 10 MPH (9 knots; 4.6 m/s)
Visibility: 6 or more miles (10+ km)
Ceiling: at least 12,000 feet AGL
Clouds: sky clear below 12,000 feet AGL
Weather: no significant weather observed at this time

METAR text: ESIB 230920Z AUTO 27010KT 9999 NCD 18/09 Q1024
Conditions at: ESIB (SATENAS (SWE-AFB, SE) observed 0920 UTC 23 June 2019
Temperature: 18.0°C (64°F)
Dewpoint: 9.0°C (48°F) [RH = 56%]
Pressure (altimeter): 30.24 inches Hg (1024.0 mb)
Winds: from the W (270 degrees) at 12 MPH (10 knots; 5.1 m/s)
Visibility: 6 or more miles (10+ km)
Ceiling: at least 12,000 feet AGL
Clouds: sky clear below 12,000 feet AGL
Weather: no significant weather observed at this time

METAR text: ESIB 230850Z AUTO 27009KT 9999 FEW230/// 18/09 Q1025
Conditions at: ESIB (SATENAS (SWE-AFB, SE) observed 0850 UTC 23 June 2019
Temperature: 18.0°C (64°F)
Dewpoint: 9.0°C (48°F) [RH = 56%]
Pressure (altimeter): 30.27 inches Hg (1025.0 mb)
Winds: from the W (270 degrees) at 10 MPH (9 knots; 4.6 m/s)
Visibility: 6 or more miles (10+ km)
Ceiling: at least 12,000 feet AGL
Clouds: few clouds at 23000 feet AGL
Weather: no significant weather observed at this time

METAR text: ESIB 230820Z AUTO 26008KT 9999 FEW180/// 17/09 Q1024
Conditions at: ESIB (SATENAS (SWE-AFB, SE) observed 0820 UTC 23 June 2019
Temperature: 17.0°C (63°F)
Dewpoint: 9.0°C (48°F) [RH = 59%]
Pressure (altimeter): 30.24 inches Hg (1024.0 mb)
Winds: from the W (260 degrees) at 9 MPH (8 knots; 4.1 m/s)
Visibility: 6 or more miles (10+ km)
Ceiling: at least 12,000 feet AGL
Clouds: few clouds at 18000 feet AGL
Weather: no significant weather observed at this time

METAR text: ESIB 230750Z AUTO 26009KT 9999 FEW200/// 17/09 Q1024
Conditions at: ESIB (SATENAS (SWE-AFB, SE) observed 0750 UTC 23 June 2019
Temperature: 17.0°C (63°F)
Dewpoint: 9.0°C (48°F) [RH = 59%]
Pressure (altimeter): 30.24 inches Hg (1024.0 mb)
Winds: from the W (260 degrees) at 10 MPH (9 knots; 4.6 m/s)
Visibility: 6 or more miles (10+ km)
Ceiling: at least 12,000 feet AGL
Clouds: few clouds at 20000 feet AGL
Weather: no significant weather observed at this time

METAR text: ESIB 230720Z AUTO 26007KT 9999 FEW190/// SCT230/// 16/09 Q1024
Conditions at: ESIB (SATENAS (SWE-AFB, SE) observed 0720 UTC 23 June 2019
Temperature: 16.0°C (61°F)
Dewpoint: 9.0°C (48°F) [RH = 63%]
Pressure (altimeter): 30.24 inches Hg (1024.0 mb)
Winds: from the W (260 degrees) at 8 MPH (7 knots; 3.6 m/s)
Visibility: 6 or more miles (10+ km)
Ceiling: at least 12,000 feet AGL
Clouds: few clouds at 19000 feet AGL
scattered clouds at 23000 feet AGL
Weather: no significant weather observed at this time

METAR text: ESIB 230650Z AUTO 27008KT 9999 NCD 16/10 Q1024
Conditions at: ESIB (SATENAS (SWE-AFB, SE) observed 0650 UTC 23 June 2019
Temperature: 16.0°C (61°F)
Dewpoint: 10.0°C (50°F) [RH = 68%]
Pressure (altimeter): 30.24 inches Hg (1024.0 mb)
Winds: from the W (270 degrees) at 9 MPH (8 knots; 4.1 m/s)
Visibility: 6 or more miles (10+ km)
Ceiling: at least 12,000 feet AGL
Clouds: sky clear below 12,000 feet AGL
Weather: no significant weather observed at this time

METAR text: ESIB 230620Z AUTO 26007KT 9999 NCD 15/11 Q1024
Conditions at: ESIB (SATENAS (SWE-AFB, SE) observed 0620 UTC 23 June 2019
Temperature: 15.0°C (59°F)
Dewpoint: 11.0°C (52°F) [RH = 77%]
Pressure (altimeter): 30.24 inches Hg (1024.0 mb)
Winds: from the W (260 degrees) at 8 MPH (7 knots; 3.6 m/s)
Visibility: 6 or more miles (10+ km)
Ceiling: at least 12,000 feet AGL
Clouds: sky clear below 12,000 feet AGL
Weather: no significant weather observed at this time

METAR text: ESIB 230550Z AUTO 25007KT 9999 NCD 15/12 Q1024
Conditions at: ESIB (SATENAS (SWE-AFB, SE) observed 0550 UTC 23 June 2019
Temperature: 15.0°C (59°F)
Dewpoint: 12.0°C (54°F) [RH = 82%]
Pressure (altimeter): 30.24 inches Hg (1024.0 mb)
Winds: from the WSW (250 degrees) at 8 MPH (7 knots; 3.6 m/s)
Visibility: 6 or more miles (10+ km)
Ceiling: at least 12,000 feet AGL
Clouds: sky clear below 12,000 feet AGL
Weather: no significant weather observed at this time

Forecast for: ESIB (SATENAS (SWE-AFB, SE)
Text: TAF ESIB 241130Z 2412/2415 02010KT 9999 FEW040 RMK MIL
Forecast period: 1200 to 1500 UTC 24 June 2019
Forecast type: FROM: standard forecast or significant change
Winds: from the NNE (20 degrees) at 12 MPH (10 knots; 5.1 m/s)
Visibility: 6 or more miles 10+ km)
Ceiling: at least 12,000 feet AGL
Clouds: few clouds at 4000 feet AGL
Weather: no significant weather forecast for this period